createdAt,value
2019-03-16T00:01:39.510Z,10.50
2019-03-16T00:04:05.779Z,10.50
2019-03-16T00:06:33.327Z,10.50
2019-03-16T00:08:59.620Z,10.50
2019-03-16T00:11:25.864Z,10.50
2019-03-16T00:13:52.209Z,10.50
2019-03-16T00:16:18.500Z,10.50
2019-03-16T00:18:44.746Z,10.50
2019-03-16T00:23:52.440Z,10.50
2019-03-16T00:26:18.695Z,10.50
2019-03-16T00:28:44.972Z,10.50
2019-03-16T00:31:11.229Z,10.50
2019-03-16T00:33:37.543Z,10.50
2019-03-16T00:36:03.822Z,10.50
2019-03-16T00:38:30.077Z,10.50
2019-03-16T00:40:56.367Z,10.50
2019-03-16T00:43:22.621Z,10.50
2019-03-16T00:45:48.886Z,10.50
2019-03-16T00:48:15.155Z,10.50
2019-03-16T00:50:41.447Z,10.40
2019-03-16T00:53:07.742Z,10.40
2019-03-16T00:55:33.988Z,10.40
2019-03-16T00:58:00.254Z,10.40
2019-03-16T01:00:27.259Z,10.40
2019-03-16T01:02:53.615Z,10.40
2019-03-16T01:05:19.884Z,10.40
2019-03-16T01:07:46.167Z,10.40
2019-03-16T01:10:12.846Z,10.40
2019-03-16T01:12:39.203Z,10.40
2019-03-16T01:15:11.099Z,10.40
2019-03-16T01:17:37.482Z,10.40
2019-03-16T01:20:07.855Z,10.40
2019-03-16T01:22:34.251Z,10.40
2019-03-16T01:25:00.553Z,10.40
2019-03-16T01:27:26.816Z,10.40
2019-03-16T01:29:53.093Z,10.40
2019-03-16T01:32:19.350Z,10.40
2019-03-16T01:34:45.631Z,10.40
2019-03-16T01:37:11.899Z,10.40
2019-03-16T01:39:38.158Z,10.40
2019-03-16T01:42:04.488Z,10.40
2019-03-16T01:44:30.758Z,10.40
2019-03-16T01:46:57.002Z,10.40
2019-03-16T01:49:23.264Z,10.40
2019-03-16T01:51:49.534Z,10.40
2019-03-16T01:54:15.783Z,10.40
2019-03-16T01:56:42.054Z,10.40
2019-03-16T01:59:08.338Z,10.50
2019-03-16T02:01:34.605Z,10.50
2019-03-16T02:04:00.889Z,10.50
2019-03-16T02:06:27.257Z,10.40
2019-03-16T02:08:53.548Z,10.40
2019-03-16T02:11:20.480Z,10.40
2019-03-16T02:13:46.735Z,10.40
2019-03-16T02:16:13.035Z,10.40
2019-03-16T02:18:39.388Z,10.40
2019-03-16T02:21:05.782Z,10.50
2019-03-16T02:23:32.075Z,10.40
2019-03-16T02:25:58.327Z,10.40
2019-03-16T02:28:24.588Z,10.40
2019-03-16T02:30:50.848Z,10.40
2019-03-16T02:33:17.151Z,10.40
2019-03-16T02:35:43.419Z,10.40
2019-03-16T02:38:09.975Z,10.30
2019-03-16T02:40:36.251Z,10.30
2019-03-16T02:43:02.601Z,10.30
2019-03-16T02:45:28.891Z,10.30
2019-03-16T02:47:55.139Z,10.20
2019-03-16T02:50:21.445Z,10.20
2019-03-16T02:52:49.703Z,10.20
2019-03-16T02:55:15.853Z,10.20
2019-03-16T02:57:42.121Z,10.20
2019-03-16T03:00:12.231Z,10.20
2019-03-16T03:02:38.624Z,10.20
2019-03-16T03:05:07.862Z,10.20
2019-03-16T03:07:34.201Z,10.20
2019-03-16T03:10:00.470Z,10.20
2019-03-16T03:12:26.705Z,10.20
2019-03-16T03:14:52.973Z,10.20
2019-03-16T03:17:19.242Z,10.20
2019-03-16T03:19:45.502Z,10.20
2019-03-16T03:22:11.783Z,10.20
2019-03-16T03:24:38.075Z,10.20
2019-03-16T03:27:04.351Z,10.20
2019-03-16T03:29:30.613Z,10.20
2019-03-16T03:31:56.891Z,10.30
2019-03-16T03:34:23.157Z,10.30
2019-03-16T03:36:49.428Z,10.30
2019-03-16T03:39:15.685Z,10.30
2019-03-16T03:41:41.946Z,10.30
2019-03-16T03:44:08.295Z,10.30
2019-03-16T03:46:34.582Z,10.30
2019-03-16T03:49:00.858Z,10.30
2019-03-16T03:51:27.151Z,10.30
2019-03-16T03:53:53.430Z,10.30
2019-03-16T03:56:19.671Z,10.30
2019-03-16T03:58:45.984Z,10.30
2019-03-16T04:01:12.442Z,10.30
2019-03-16T04:03:38.808Z,10.30
2019-03-16T04:06:05.173Z,10.30
2019-03-16T04:08:31.721Z,10.30
2019-03-16T04:10:57.984Z,10.30
2019-03-16T04:13:24.293Z,10.30
2019-03-16T04:15:50.571Z,10.30
2019-03-16T04:18:16.902Z,10.30
2019-03-16T04:20:43.142Z,10.30
2019-03-16T04:23:09.402Z,10.30
2019-03-16T04:25:35.692Z,10.30
2019-03-16T04:28:02.033Z,10.30
2019-03-16T04:30:28.366Z,10.30
2019-03-16T04:32:54.679Z,10.30
2019-03-16T04:35:20.973Z,10.30
2019-03-16T04:37:47.215Z,10.30
2019-03-16T04:40:13.592Z,10.20
2019-03-16T04:42:39.842Z,10.30
2019-03-16T04:45:10.153Z,10.30
2019-03-16T04:47:36.414Z,10.30
2019-03-16T04:50:08.379Z,10.30
2019-03-16T04:52:34.654Z,10.30
2019-03-16T04:55:00.958Z,10.20
2019-03-16T04:57:27.203Z,10.20
2019-03-16T04:59:53.474Z,10.20
2019-03-16T05:02:19.731Z,10.20
2019-03-16T05:04:46.140Z,10.20
2019-03-16T05:07:12.425Z,10.20
2019-03-16T05:09:38.722Z,10.20
2019-03-16T05:12:04.975Z,10.20
2019-03-16T05:14:31.240Z,10.20
2019-03-16T05:16:57.510Z,10.20
2019-03-16T05:19:23.788Z,10.20
2019-03-16T05:21:50.014Z,10.20
2019-03-16T05:24:16.400Z,10.20
2019-03-16T05:26:42.642Z,10.20
2019-03-16T05:29:08.924Z,10.20
2019-03-16T05:31:35.170Z,10.20
2019-03-16T05:34:01.487Z,10.20
2019-03-16T05:36:27.742Z,10.20
2019-03-16T05:38:54.018Z,10.20
2019-03-16T05:41:20.292Z,10.20
2019-03-16T05:43:46.540Z,10.20
2019-03-16T05:46:12.904Z,10.30
2019-03-16T05:48:39.181Z,10.30
2019-03-16T05:51:05.527Z,10.30
2019-03-16T05:53:31.822Z,10.30
2019-03-16T05:55:58.093Z,10.30
2019-03-16T05:58:24.377Z,10.40
2019-03-16T06:00:50.657Z,10.40
2019-03-16T06:03:17.031Z,10.40
2019-03-16T06:05:43.421Z,10.40
2019-03-16T06:08:09.667Z,10.40
2019-03-16T06:10:35.958Z,10.50
2019-03-16T06:13:02.466Z,10.50
2019-03-16T06:15:28.800Z,10.50
2019-03-16T06:17:55.052Z,10.50
2019-03-16T06:20:21.326Z,10.60
2019-03-16T06:22:47.575Z,10.60
2019-03-16T06:25:13.849Z,10.60
2019-03-16T06:27:40.115Z,10.60
2019-03-16T06:30:12.512Z,10.70
2019-03-16T06:32:38.766Z,10.60
2019-03-16T06:35:05.925Z,10.70
2019-03-16T06:37:32.602Z,10.70
2019-03-16T06:39:58.984Z,10.70
2019-03-16T06:42:25.241Z,10.70
2019-03-16T06:44:51.517Z,10.80
2019-03-16T06:47:17.755Z,10.80
2019-03-16T06:49:44.082Z,10.80
2019-03-16T06:52:10.321Z,10.80
2019-03-16T06:54:36.623Z,10.80
2019-03-16T06:57:04.417Z,10.70
2019-03-16T06:59:43.915Z,10.80
2019-03-16T07:02:10.175Z,10.80
2019-03-16T07:04:36.436Z,10.80
2019-03-16T07:07:03.563Z,10.80
2019-03-16T07:09:29.836Z,10.80
2019-03-16T07:11:56.896Z,10.80
2019-03-16T07:14:23.609Z,10.80
2019-03-16T07:17:01.430Z,10.80
2019-03-16T07:19:18.359Z,10.80
2019-03-16T07:21:44.828Z,10.90
2019-03-16T07:24:11.111Z,10.90
2019-03-16T07:26:37.442Z,10.90
2019-03-16T07:29:05.762Z,10.90
2019-03-16T07:31:32.281Z,11.00
2019-03-16T07:33:58.562Z,11.00
2019-03-16T07:36:24.932Z,11.00
2019-03-16T07:38:51.210Z,11.00
2019-03-16T07:41:17.754Z,11.10
2019-03-16T07:43:44.015Z,11.10
2019-03-16T07:46:10.292Z,11.20
2019-03-16T07:48:36.551Z,11.30
2019-03-16T07:51:03.036Z,11.50
2019-03-16T07:53:29.307Z,11.50
2019-03-16T07:55:55.577Z,11.60
2019-03-16T07:58:21.884Z,11.60
2019-03-16T08:00:48.139Z,11.60
2019-03-16T08:03:14.724Z,11.60
2019-03-16T08:05:40.999Z,11.60
2019-03-16T08:08:07.349Z,11.60
2019-03-16T08:10:33.652Z,11.60
2019-03-16T08:13:00.369Z,11.60
2019-03-16T08:15:28.079Z,11.60
2019-03-16T08:17:54.611Z,11.70
2019-03-16T08:20:20.897Z,11.70
2019-03-16T08:22:47.201Z,11.80
2019-03-16T08:25:13.610Z,11.90
2019-03-16T08:27:53.043Z,11.90
2019-03-16T08:30:10.267Z,11.90
2019-03-16T08:32:36.953Z,11.90
2019-03-16T08:35:04.715Z,12.00
2019-03-16T08:37:30.997Z,12.00
2019-03-16T08:39:57.236Z,12.00
2019-03-16T08:42:23.647Z,12.10
2019-03-16T08:44:49.924Z,12.10
2019-03-16T08:47:16.182Z,12.10
2019-03-16T08:49:42.484Z,12.10
2019-03-16T08:52:08.863Z,12.10
2019-03-16T08:54:35.476Z,12.10
2019-03-16T08:57:01.744Z,12.10
2019-03-16T08:59:32.487Z,12.10
2019-03-16T09:01:58.857Z,12.10
2019-03-16T09:04:25.129Z,12.20
2019-03-16T09:06:53.018Z,12.30
2019-03-16T09:09:19.540Z,12.40
2019-03-16T09:11:45.920Z,12.50
2019-03-16T09:14:12.183Z,12.50
2019-03-16T09:16:46.369Z,12.60
2019-03-16T09:19:13.176Z,12.80
2019-03-16T09:21:39.449Z,12.80
2019-03-16T09:24:05.951Z,12.80
2019-03-16T09:26:34.116Z,12.90
2019-03-16T09:29:00.546Z,13.00
2019-03-16T09:31:26.833Z,13.20
2019-03-16T09:33:53.200Z,13.30
2019-03-16T09:36:19.538Z,13.40
2019-03-16T09:38:45.885Z,13.50
2019-03-16T09:41:12.369Z,13.70
2019-03-16T09:43:38.625Z,13.80
2019-03-16T09:46:04.878Z,14.00
2019-03-16T09:48:31.233Z,14.10
2019-03-16T09:50:57.516Z,14.20
2019-03-16T09:53:23.761Z,14.30
2019-03-16T09:55:52.577Z,14.40
2019-03-16T09:58:30.446Z,14.50
2019-03-16T10:00:47.054Z,14.50
2019-03-16T10:03:13.408Z,14.50
2019-03-16T10:05:39.691Z,14.60
2019-03-16T10:08:05.974Z,14.50
2019-03-16T10:10:32.215Z,14.60
2019-03-16T10:12:58.504Z,14.60
2019-03-16T10:15:24.916Z,14.60
2019-03-16T10:17:51.191Z,14.50
2019-03-16T10:20:17.442Z,14.60
2019-03-16T10:22:43.709Z,14.80
2019-03-16T10:25:10.180Z,14.80
2019-03-16T10:27:36.456Z,14.90
2019-03-16T10:30:12.360Z,15.00
2019-03-16T10:32:38.757Z,15.20
2019-03-16T10:35:05.449Z,15.40
2019-03-16T10:37:31.703Z,15.50
2019-03-16T10:39:57.988Z,15.60
2019-03-16T10:42:24.234Z,15.80
2019-03-16T10:44:50.600Z,16.00
2019-03-16T10:47:16.968Z,16.10
2019-03-16T10:49:43.372Z,16.40
2019-03-16T10:52:09.618Z,16.60
2019-03-16T10:54:36.118Z,16.60
2019-03-16T10:57:04.341Z,16.70
2019-03-16T10:59:31.255Z,16.70
2019-03-16T11:01:57.525Z,16.70
2019-03-16T11:04:23.816Z,16.70
2019-03-16T11:06:51.393Z,16.80
2019-03-16T11:09:17.699Z,16.80
2019-03-16T11:11:44.497Z,16.80
2019-03-16T11:14:11.156Z,16.80
2019-03-16T11:16:37.424Z,16.80
2019-03-16T11:19:03.879Z,16.80
2019-03-16T11:21:30.436Z,16.80
2019-03-16T11:23:56.691Z,16.80
2019-03-16T11:26:23.050Z,16.80
2019-03-16T11:28:52.038Z,16.70
2019-03-16T11:31:18.295Z,16.60
2019-03-16T11:33:44.994Z,16.50
2019-03-16T11:36:11.315Z,16.40
2019-03-16T11:38:37.734Z,16.30
2019-03-16T11:41:04.296Z,16.20
2019-03-16T11:43:30.543Z,16.00
2019-03-16T11:45:56.806Z,15.90
2019-03-16T11:48:23.111Z,15.90
2019-03-16T11:50:49.366Z,15.90
2019-03-16T11:53:15.640Z,16.00
2019-03-16T11:55:41.999Z,16.00
2019-03-16T11:58:08.380Z,16.00
2019-03-16T12:00:34.686Z,15.90
2019-03-16T12:03:01.247Z,15.90
2019-03-16T12:08:14.808Z,15.90
2019-03-16T12:10:41.195Z,15.80
2019-03-16T12:13:16.765Z,15.80
2019-03-16T12:15:35.951Z,15.80
2019-03-16T12:18:02.437Z,15.70
2019-03-16T12:20:28.706Z,15.70
2019-03-16T12:22:55.111Z,15.60
2019-03-16T12:25:21.372Z,15.50
2019-03-16T12:27:47.626Z,15.50
2019-03-16T12:30:14.814Z,15.50
2019-03-16T12:32:41.208Z,15.40
2019-03-16T12:35:08.216Z,15.30
2019-03-16T12:37:34.503Z,15.30
2019-03-16T12:40:00.750Z,15.30
2019-03-16T12:42:27.022Z,15.20
2019-03-16T12:44:53.506Z,15.20
2019-03-16T12:47:19.911Z,15.30
2019-03-16T12:49:46.166Z,15.30
2019-03-16T12:52:12.426Z,15.30
2019-03-16T12:54:38.715Z,15.30
2019-03-16T12:57:04.998Z,15.40
2019-03-16T12:59:31.270Z,15.40
2019-03-16T13:01:57.543Z,15.40
2019-03-16T13:04:23.829Z,15.40
2019-03-16T13:06:50.093Z,15.40
2019-03-16T13:09:16.370Z,15.40
2019-03-16T13:11:42.667Z,15.40
2019-03-16T13:14:09.027Z,15.40
2019-03-16T13:16:37.263Z,15.50
2019-03-16T13:19:03.495Z,15.50
2019-03-16T13:21:29.977Z,15.50
2019-03-16T13:23:56.241Z,15.50
2019-03-16T13:26:22.491Z,15.50
2019-03-16T13:28:48.772Z,15.50
2019-03-16T13:31:15.028Z,15.60
2019-03-16T13:33:41.280Z,15.60
2019-03-16T13:36:07.770Z,15.60
2019-03-16T13:38:34.053Z,15.70
2019-03-16T13:41:00.317Z,15.70
2019-03-16T13:43:26.565Z,15.80
2019-03-16T13:45:52.812Z,15.80
2019-03-16T13:48:19.093Z,15.80
2019-03-16T13:50:45.334Z,16.00
2019-03-16T13:53:13.527Z,16.00
2019-03-16T13:55:40.846Z,16.00
2019-03-16T13:58:07.112Z,16.10
2019-03-16T14:00:33.547Z,16.10
2019-03-16T14:03:00.223Z,16.10
2019-03-16T14:05:26.486Z,16.20
2019-03-16T14:07:53.009Z,16.20
2019-03-16T14:10:29.635Z,16.20
2019-03-16T14:12:55.926Z,16.20
2019-03-16T14:15:22.433Z,16.30
2019-03-16T14:17:49.074Z,16.30
2019-03-16T14:20:15.888Z,16.30
2019-03-16T14:22:42.260Z,16.40
2019-03-16T14:25:09.125Z,16.40
2019-03-16T14:27:35.381Z,16.40
2019-03-16T14:30:04.189Z,16.40
2019-03-16T14:32:30.446Z,16.40
2019-03-16T14:34:57.230Z,16.40
2019-03-16T14:37:23.697Z,16.50
2019-03-16T14:39:49.975Z,16.40
2019-03-16T14:42:16.268Z,16.40
2019-03-16T14:44:42.522Z,16.40
2019-03-16T14:47:09.337Z,16.50
2019-03-16T14:49:35.898Z,16.40
2019-03-16T14:52:02.667Z,16.40
2019-03-16T14:54:30.900Z,16.40
2019-03-16T14:56:57.157Z,16.50
2019-03-16T14:59:23.431Z,16.50
2019-03-16T15:01:50.122Z,16.50
2019-03-16T15:04:16.507Z,16.50
2019-03-16T15:06:42.769Z,16.50
2019-03-16T15:09:09.017Z,16.40
2019-03-16T15:11:35.319Z,16.40
2019-03-16T15:14:01.588Z,16.40
2019-03-16T15:16:27.884Z,16.30
2019-03-16T15:18:54.149Z,16.30
2019-03-16T15:21:20.524Z,16.20
2019-03-16T15:23:46.768Z,16.20
2019-03-16T15:26:13.103Z,16.10
2019-03-16T15:28:42.172Z,16.00
2019-03-16T15:31:08.431Z,16.00
2019-03-16T15:33:34.717Z,15.90
2019-03-16T15:36:00.996Z,15.90
2019-03-16T15:38:27.385Z,15.80
2019-03-16T15:40:53.640Z,15.80
2019-03-16T15:43:21.508Z,15.80
2019-03-16T15:45:47.779Z,15.70
2019-03-16T15:48:14.042Z,15.70
2019-03-16T15:50:40.596Z,15.70
2019-03-16T15:53:07.004Z,15.70
2019-03-16T15:55:33.311Z,15.60
2019-03-16T15:58:08.200Z,15.60
2019-03-16T16:00:27.771Z,15.60
2019-03-16T16:02:54.038Z,15.60
2019-03-16T16:05:20.425Z,15.50
2019-03-16T16:07:46.808Z,15.50
2019-03-16T16:10:15.101Z,15.50
2019-03-16T16:12:41.413Z,15.50
2019-03-16T16:15:10.900Z,15.40
2019-03-16T16:17:38.706Z,15.40
2019-03-16T16:20:14.380Z,15.30
2019-03-16T16:22:40.785Z,15.30
2019-03-16T16:25:09.858Z,15.20
2019-03-16T16:27:36.103Z,15.20
2019-03-16T16:30:07.803Z,15.10
2019-03-16T16:32:34.063Z,15.10
2019-03-16T16:35:00.384Z,15.00
2019-03-16T16:37:26.609Z,15.00
2019-03-16T16:39:57.015Z,15.00
2019-03-16T16:42:23.287Z,14.90
2019-03-16T16:44:49.544Z,14.90
2019-03-16T16:47:15.936Z,14.90
2019-03-16T16:49:42.201Z,14.80
2019-03-16T16:52:08.453Z,14.80
2019-03-16T16:54:37.585Z,14.80
2019-03-16T16:57:02.996Z,14.70
2019-03-16T16:59:29.416Z,14.70
2019-03-16T17:04:42.742Z,14.60
2019-03-16T17:07:09.078Z,14.60
2019-03-16T17:09:35.859Z,14.50
2019-03-16T17:12:02.340Z,14.50
2019-03-16T17:14:28.641Z,14.40
2019-03-16T17:16:54.933Z,14.40
2019-03-16T17:19:21.223Z,14.30
2019-03-16T17:21:47.920Z,14.30
2019-03-16T17:24:14.281Z,14.30
2019-03-16T17:26:40.590Z,14.20
2019-03-16T17:29:07.398Z,14.20
2019-03-16T17:31:42.259Z,14.10
2019-03-16T17:34:02.967Z,14.10
2019-03-16T17:36:29.670Z,14.00
2019-03-16T17:38:56.567Z,14.00
2019-03-16T17:41:23.700Z,13.90
2019-03-16T17:43:49.973Z,13.80
2019-03-16T17:46:16.226Z,13.80
2019-03-16T17:48:42.489Z,13.70
2019-03-16T17:51:08.790Z,13.70
2019-03-16T17:53:35.041Z,13.60
2019-03-16T17:56:01.333Z,13.50
2019-03-16T17:58:27.868Z,13.40
2019-03-16T18:00:54.137Z,13.40
2019-03-16T18:03:20.495Z,13.30
2019-03-16T18:05:46.742Z,13.20
2019-03-16T18:08:13.053Z,13.10
2019-03-16T18:10:39.319Z,13.00
2019-03-16T18:13:05.715Z,13.00
2019-03-16T18:15:33.087Z,12.80
2019-03-16T18:17:59.663Z,12.80
2019-03-16T18:20:27.825Z,12.70
2019-03-16T18:22:54.077Z,12.60
2019-03-16T18:25:20.465Z,12.50
2019-03-16T18:27:46.718Z,12.40
2019-03-16T18:30:22.111Z,12.40
2019-03-16T18:32:48.375Z,12.30
2019-03-16T18:35:14.730Z,12.20
2019-03-16T18:37:40.993Z,12.20
2019-03-16T18:40:13.783Z,12.10
2019-03-16T18:42:40.058Z,12.10
2019-03-16T18:45:20.437Z,12.10
2019-03-16T18:47:46.742Z,12.10
2019-03-16T18:50:13.103Z,12.00
2019-03-16T18:52:39.614Z,12.00
2019-03-16T18:55:13.726Z,12.00
2019-03-16T18:57:40.214Z,12.00
2019-03-16T19:00:11.118Z,11.90
2019-03-16T19:02:37.481Z,11.90
2019-03-16T19:05:06.980Z,11.90
2019-03-16T19:07:33.327Z,11.90
2019-03-16T19:10:01.532Z,11.80
2019-03-16T19:12:27.792Z,11.80
2019-03-16T19:14:54.429Z,11.80
2019-03-16T19:17:20.685Z,11.80
2019-03-16T19:19:46.981Z,11.80
2019-03-16T19:22:13.366Z,11.80
2019-03-16T19:24:39.641Z,11.80
2019-03-16T19:27:05.915Z,11.80
2019-03-16T19:29:32.285Z,11.80
2019-03-16T19:31:58.581Z,11.80
2019-03-16T19:34:26.755Z,11.80
2019-03-16T19:36:53.122Z,11.80
2019-03-16T19:39:19.454Z,11.80
2019-03-16T19:41:46.716Z,11.70
2019-03-16T19:44:13.583Z,11.70
2019-03-16T19:46:40.649Z,11.70
2019-03-16T19:49:07.746Z,11.70
2019-03-16T19:51:34.029Z,11.60
2019-03-16T19:54:00.915Z,11.60
2019-03-16T19:56:27.486Z,11.60
2019-03-16T19:59:00.544Z,11.60
2019-03-16T20:01:23.979Z,11.50
2019-03-16T20:03:51.168Z,11.40
2019-03-16T20:06:25.518Z,11.40
2019-03-16T20:08:47.321Z,11.40
2019-03-16T20:11:14.435Z,11.40
2019-03-16T20:13:41.664Z,11.40
2019-03-16T20:16:08.355Z,11.40
2019-03-16T20:18:35.612Z,11.40
2019-03-16T20:21:02.558Z,11.40
2019-03-16T20:23:29.688Z,11.50
2019-03-16T20:25:56.589Z,11.50
2019-03-16T20:28:24.129Z,11.50
2019-03-16T20:30:51.260Z,11.50
2019-03-16T20:33:18.270Z,11.60
2019-03-16T20:35:45.345Z,11.60
2019-03-16T20:38:12.427Z,11.60
2019-03-16T20:40:39.550Z,11.60
2019-03-16T20:43:06.789Z,11.60
2019-03-16T20:45:33.547Z,11.70
2019-03-16T20:48:00.669Z,11.70
2019-03-16T20:50:27.420Z,11.70
2019-03-16T20:52:54.036Z,11.70
2019-03-16T20:55:20.886Z,11.70
2019-03-16T20:57:47.234Z,11.70
2019-03-16T21:00:19.821Z,11.70
2019-03-16T21:02:46.238Z,11.70
2019-03-16T21:05:16.808Z,11.70
2019-03-16T21:07:43.333Z,11.70
2019-03-16T21:10:11.580Z,11.70
2019-03-16T21:12:37.955Z,11.70
2019-03-16T21:15:11.049Z,11.60
2019-03-16T21:17:37.681Z,11.60
2019-03-16T21:20:16.648Z,11.60
2019-03-16T21:22:43.005Z,11.50
2019-03-16T21:25:15.389Z,11.50
2019-03-16T21:27:42.000Z,11.40
2019-03-16T21:30:16.717Z,11.40
2019-03-16T21:32:43.073Z,11.30
2019-03-16T21:35:09.531Z,11.30
2019-03-16T21:37:35.848Z,11.30
2019-03-16T21:40:11.414Z,11.20
2019-03-16T21:42:37.683Z,11.30
2019-03-16T21:45:13.397Z,11.20
2019-03-16T21:47:39.646Z,11.20
2019-03-16T21:50:12.086Z,11.10
2019-03-16T21:52:38.452Z,11.10
2019-03-16T21:55:08.127Z,11.20
2019-03-16T21:57:34.380Z,11.10
2019-03-16T22:00:00.648Z,11.10
2019-03-16T22:02:26.903Z,11.10
2019-03-16T22:04:53.167Z,11.20
2019-03-16T22:07:19.432Z,11.20
2019-03-16T22:09:45.701Z,11.20
2019-03-16T22:12:11.978Z,11.30
2019-03-16T22:14:38.275Z,11.30
2019-03-16T22:17:04.523Z,11.30
2019-03-16T22:19:30.806Z,11.30
2019-03-16T22:21:57.049Z,11.30
2019-03-16T22:24:23.313Z,11.40
2019-03-16T22:26:49.584Z,11.40
2019-03-16T22:29:15.957Z,11.40
2019-03-16T22:31:42.202Z,11.40
2019-03-16T22:34:08.488Z,11.50
2019-03-16T22:36:34.761Z,11.40
2019-03-16T22:39:01.020Z,11.50
2019-03-16T22:41:27.277Z,11.40
2019-03-16T22:43:53.537Z,11.40
2019-03-16T22:46:19.854Z,11.40
2019-03-16T22:48:46.131Z,11.30
2019-03-16T22:51:12.384Z,11.30
2019-03-16T22:53:38.933Z,11.30
2019-03-16T22:56:05.208Z,11.20
2019-03-16T22:58:31.465Z,11.20
2019-03-16T23:00:58.019Z,11.20
2019-03-16T23:03:24.523Z,11.10
2019-03-16T23:05:51.074Z,11.10
2019-03-16T23:08:17.334Z,11.00
2019-03-16T23:10:43.682Z,10.90
2019-03-16T23:13:09.945Z,10.90
2019-03-16T23:15:36.237Z,10.90
2019-03-16T23:18:02.703Z,10.80
2019-03-16T23:20:29.097Z,10.70
2019-03-16T23:22:55.352Z,10.70
2019-03-16T23:25:21.607Z,10.70
2019-03-16T23:27:47.892Z,10.60
2019-03-16T23:30:14.330Z,10.50
2019-03-16T23:32:40.596Z,10.50
2019-03-16T23:35:07.856Z,10.40
2019-03-16T23:37:34.131Z,10.40
2019-03-16T23:40:00.415Z,10.30
2019-03-16T23:42:26.660Z,10.30
2019-03-16T23:44:52.928Z,10.20
2019-03-16T23:47:19.178Z,10.20
2019-03-16T23:49:45.455Z,10.10
2019-03-16T23:52:11.702Z,10.00
2019-03-16T23:54:38.047Z,10.00
2019-03-16T23:57:04.531Z,10.00
2019-03-16T23:59:30.790Z,9.90
